sensor_id;sensor_type;location;lat;lon;timestamp;P1;durP1;ratioP1;P2;durP2;ratioP2
40827;SDS011;26549;50.918;5.338;2023-07-02T00:01:41;16.38;;;6.75;;
40827;SDS011;26549;50.918;5.338;2023-07-02T00:04:06;16.73;;;7.40;;
40827;SDS011;26549;50.918;5.338;2023-07-02T00:06:34;13.85;;;7.00;;
40827;SDS011;26549;50.918;5.338;2023-07-02T00:09:05;12.98;;;6.75;;
40827;SDS011;26549;50.918;5.338;2023-07-02T00:11:32;12.48;;;6.15;;
40827;SDS011;26549;50.918;5.338;2023-07-02T00:13:57;13.40;;;7.57;;
40827;SDS011;26549;50.918;5.338;2023-07-02T00:16:23;15.45;;;7.20;;
40827;SDS011;26549;50.918;5.338;2023-07-02T00:18:49;16.92;;;8.25;;
40827;SDS011;26549;50.918;5.338;2023-07-02T00:21:20;16.20;;;7.65;;
40827;SDS011;26549;50.918;5.338;2023-07-02T00:23:47;18.63;;;9.45;;
40827;SDS011;26549;50.918;5.338;2023-07-02T00:26:13;23.90;;;7.97;;
40827;SDS011;26549;50.918;5.338;2023-07-02T00:28:39;14.70;;;8.13;;
40827;SDS011;26549;50.918;5.338;2023-07-02T00:31:05;22.83;;;10.07;;
40827;SDS011;26549;50.918;5.338;2023-07-02T00:33:33;21.67;;;8.30;;
40827;SDS011;26549;50.918;5.338;2023-07-02T00:35:59;14.15;;;7.57;;
40827;SDS011;26549;50.918;5.338;2023-07-02T00:38:25;20.80;;;8.23;;
40827;SDS011;26549;50.918;5.338;2023-07-02T00:40:51;16.08;;;9.18;;
40827;SDS011;26549;50.918;5.338;2023-07-02T00:43:17;19.30;;;8.68;;
40827;SDS011;26549;50.918;5.338;2023-07-02T00:45:44;19.67;;;9.23;;
40827;SDS011;26549;50.918;5.338;2023-07-02T00:48:10;17.67;;;8.88;;
40827;SDS011;26549;50.918;5.338;2023-07-02T00:50:36;20.95;;;9.77;;
40827;SDS011;26549;50.918;5.338;2023-07-02T00:53:04;20.15;;;9.52;;
40827;SDS011;26549;50.918;5.338;2023-07-02T00:55:29;22.65;;;10.23;;
40827;SDS011;26549;50.918;5.338;2023-07-02T00:57:55;19.42;;;9.55;;
40827;SDS011;26549;50.918;5.338;2023-07-02T01:00:22;17.75;;;8.70;;
40827;SDS011;26549;50.918;5.338;2023-07-02T01:02:54;21.77;;;9.25;;
40827;SDS011;26549;50.918;5.338;2023-07-02T01:05:27;20.63;;;9.40;;
40827;SDS011;26549;50.918;5.338;2023-07-02T01:08:03;17.25;;;9.43;;
40827;SDS011;26549;50.918;5.338;2023-07-02T01:10:30;23.13;;;9.48;;
40827;SDS011;26549;50.918;5.338;2023-07-02T01:12:59;22.23;;;9.30;;
40827;SDS011;26549;50.918;5.338;2023-07-02T01:15:29;19.25;;;8.98;;
40827;SDS011;26549;50.918;5.338;2023-07-02T01:17:55;20.55;;;8.68;;
40827;SDS011;26549;50.918;5.338;2023-07-02T01:20:21;22.60;;;8.85;;
40827;SDS011;26549;50.918;5.338;2023-07-02T01:22:49;19.45;;;9.70;;
40827;SDS011;26549;50.918;5.338;2023-07-02T01:25:17;19.38;;;10.40;;
40827;SDS011;26549;50.918;5.338;2023-07-02T01:27:44;18.75;;;9.63;;
40827;SDS011;26549;50.918;5.338;2023-07-02T01:30:10;26.90;;;10.98;;
40827;SDS011;26549;50.918;5.338;2023-07-02T01:32:36;19.98;;;10.82;;
40827;SDS011;26549;50.918;5.338;2023-07-02T01:35:03;22.27;;;11.05;;
40827;SDS011;26549;50.918;5.338;2023-07-02T01:37:29;21.30;;;10.52;;
40827;SDS011;26549;50.918;5.338;2023-07-02T01:40:02;18.33;;;10.38;;
40827;SDS011;26549;50.918;5.338;2023-07-02T01:42:31;18.80;;;9.15;;
40827;SDS011;26549;50.918;5.338;2023-07-02T01:44:56;20.73;;;10.38;;
40827;SDS011;26549;50.918;5.338;2023-07-02T01:47:22;22.55;;;9.82;;
40827;SDS011;26549;50.918;5.338;2023-07-02T01:49:48;24.92;;;10.93;;
40827;SDS011;26549;50.918;5.338;2023-07-02T01:52:15;24.13;;;11.20;;
40827;SDS011;26549;50.918;5.338;2023-07-02T01:54:41;24.30;;;11.23;;
40827;SDS011;26549;50.918;5.338;2023-07-02T01:57:07;21.38;;;11.63;;
40827;SDS011;26549;50.918;5.338;2023-07-02T01:59:34;19.25;;;9.50;;
40827;SDS011;26549;50.918;5.338;2023-07-02T02:01:59;23.02;;;11.38;;
40827;SDS011;26549;50.918;5.338;2023-07-02T02:04:25;24.55;;;10.90;;
40827;SDS011;26549;50.918;5.338;2023-07-02T02:06:51;20.92;;;10.38;;
40827;SDS011;26549;50.918;5.338;2023-07-02T02:09:17;21.25;;;10.88;;
40827;SDS011;26549;50.918;5.338;2023-07-02T02:11:44;24.98;;;12.25;;
40827;SDS011;26549;50.918;5.338;2023-07-02T02:14:14;23.13;;;11.60;;
40827;SDS011;26549;50.918;5.338;2023-07-02T02:16:41;26.35;;;12.45;;
40827;SDS011;26549;50.918;5.338;2023-07-02T02:19:10;20.83;;;11.65;;
40827;SDS011;26549;50.918;5.338;2023-07-02T02:21:37;22.45;;;11.00;;
40827;SDS011;26549;50.918;5.338;2023-07-02T02:24:03;22.73;;;11.05;;
40827;SDS011;26549;50.918;5.338;2023-07-02T02:26:31;25.35;;;12.07;;
40827;SDS011;26549;50.918;5.338;2023-07-02T02:28:57;22.17;;;11.90;;
40827;SDS011;26549;50.918;5.338;2023-07-02T02:31:22;30.05;;;12.10;;
40827;SDS011;26549;50.918;5.338;2023-07-02T02:33:48;23.30;;;11.98;;
40827;SDS011;26549;50.918;5.338;2023-07-02T02:36:14;24.10;;;11.60;;
40827;SDS011;26549;50.918;5.338;2023-07-02T02:38:40;26.35;;;12.90;;
40827;SDS011;26549;50.918;5.338;2023-07-02T02:41:06;25.50;;;11.40;;
40827;SDS011;26549;50.918;5.338;2023-07-02T02:43:34;27.35;;;11.75;;
40827;SDS011;26549;50.918;5.338;2023-07-02T02:46:00;26.10;;;12.30;;
40827;SDS011;26549;50.918;5.338;2023-07-02T02:48:25;26.02;;;12.20;;
40827;SDS011;26549;50.918;5.338;2023-07-02T02:50:51;24.55;;;12.88;;
40827;SDS011;26549;50.918;5.338;2023-07-02T02:53:17;27.35;;;12.32;;
40827;SDS011;26549;50.918;5.338;2023-07-02T02:55:43;26.77;;;13.45;;
40827;SDS011;26549;50.918;5.338;2023-07-02T02:58:09;27.20;;;13.18;;
40827;SDS011;26549;50.918;5.338;2023-07-02T03:00:34;24.00;;;13.15;;
40827;SDS011;26549;50.918;5.338;2023-07-02T03:03:00;21.52;;;11.40;;
40827;SDS011;26549;50.918;5.338;2023-07-02T03:05:26;25.85;;;12.60;;
40827;SDS011;26549;50.918;5.338;2023-07-02T03:07:52;28.52;;;13.27;;
40827;SDS011;26549;50.918;5.338;2023-07-02T03:10:18;36.30;;;13.75;;
40827;SDS011;26549;50.918;5.338;2023-07-02T03:12:43;28.88;;;12.98;;
40827;SDS011;26549;50.918;5.338;2023-07-02T03:15:09;24.17;;;12.18;;
40827;SDS011;26549;50.918;5.338;2023-07-02T03:17:35;23.23;;;13.02;;
40827;SDS011;26549;50.918;5.338;2023-07-02T03:20:01;28.83;;;12.88;;
40827;SDS011;26549;50.918;5.338;2023-07-02T03:22:29;26.70;;;14.13;;
40827;SDS011;26549;50.918;5.338;2023-07-02T03:24:55;27.23;;;12.80;;
40827;SDS011;26549;50.918;5.338;2023-07-02T03:27:20;23.63;;;11.98;;
40827;SDS011;26549;50.918;5.338;2023-07-02T03:29:46;30.70;;;13.05;;
40827;SDS011;26549;50.918;5.338;2023-07-02T03:32:12;27.38;;;14.45;;
40827;SDS011;26549;50.918;5.338;2023-07-02T03:34:38;30.60;;;14.68;;
40827;SDS011;26549;50.918;5.338;2023-07-02T03:37:03;28.77;;;14.05;;
40827;SDS011;26549;50.918;5.338;2023-07-02T03:39:29;25.60;;;13.68;;
40827;SDS011;26549;50.918;5.338;2023-07-02T03:41:55;26.17;;;14.15;;
40827;SDS011;26549;50.918;5.338;2023-07-02T03:44:20;27.75;;;12.80;;
40827;SDS011;26549;50.918;5.338;2023-07-02T03:46:46;29.48;;;13.27;;
40827;SDS011;26549;50.918;5.338;2023-07-02T03:49:12;33.55;;;14.40;;
40827;SDS011;26549;50.918;5.338;2023-07-02T03:51:38;28.83;;;15.05;;
40827;SDS011;26549;50.918;5.338;2023-07-02T03:54:04;31.40;;;15.40;;
40827;SDS011;26549;50.918;5.338;2023-07-02T03:56:29;32.45;;;15.43;;
40827;SDS011;26549;50.918;5.338;2023-07-02T03:58:55;30.88;;;14.27;;
40827;SDS011;26549;50.918;5.338;2023-07-02T04:01:21;28.27;;;14.82;;
40827;SDS011;26549;50.918;5.338;2023-07-02T04:03:47;27.85;;;14.57;;
40827;SDS011;26549;50.918;5.338;2023-07-02T04:06:14;36.70;;;14.65;;
40827;SDS011;26549;50.918;5.338;2023-07-02T04:08:40;31.30;;;14.70;;
40827;SDS011;26549;50.918;5.338;2023-07-02T04:11:06;32.30;;;15.07;;
40827;SDS011;26549;50.918;5.338;2023-07-02T04:13:32;33.80;;;15.32;;
40827;SDS011;26549;50.918;5.338;2023-07-02T04:15:57;34.90;;;14.55;;
40827;SDS011;26549;50.918;5.338;2023-07-02T04:18:23;31.05;;;14.57;;
40827;SDS011;26549;50.918;5.338;2023-07-02T04:20:49;31.52;;;15.65;;
40827;SDS011;26549;50.918;5.338;2023-07-02T04:23:15;30.75;;;15.30;;
40827;SDS011;26549;50.918;5.338;2023-07-02T04:25:41;31.80;;;14.77;;
40827;SDS011;26549;50.918;5.338;2023-07-02T04:28:07;31.73;;;15.70;;
40827;SDS011;26549;50.918;5.338;2023-07-02T04:30:33;33.55;;;15.52;;
40827;SDS011;26549;50.918;5.338;2023-07-02T04:32:59;32.92;;;16.42;;
40827;SDS011;26549;50.918;5.338;2023-07-02T04:35:25;31.73;;;16.73;;
40827;SDS011;26549;50.918;5.338;2023-07-02T04:37:50;33.35;;;15.90;;
40827;SDS011;26549;50.918;5.338;2023-07-02T04:40:16;44.78;;;15.95;;
40827;SDS011;26549;50.918;5.338;2023-07-02T04:42:42;32.72;;;15.25;;
40827;SDS011;26549;50.918;5.338;2023-07-02T04:45:12;35.72;;;15.82;;
40827;SDS011;26549;50.918;5.338;2023-07-02T04:47:40;32.13;;;16.20;;
40827;SDS011;26549;50.918;5.338;2023-07-02T04:50:09;35.80;;;14.82;;
40827;SDS011;26549;50.918;5.338;2023-07-02T04:52:36;30.77;;;14.73;;
40827;SDS011;26549;50.918;5.338;2023-07-02T04:55:03;29.25;;;15.43;;
40827;SDS011;26549;50.918;5.338;2023-07-02T04:57:30;34.58;;;16.90;;
40827;SDS011;26549;50.918;5.338;2023-07-02T04:59:55;33.85;;;15.77;;
40827;SDS011;26549;50.918;5.338;2023-07-02T05:02:21;33.97;;;15.00;;
40827;SDS011;26549;50.918;5.338;2023-07-02T05:04:47;37.90;;;15.27;;
40827;SDS011;26549;50.918;5.338;2023-07-02T05:07:13;32.30;;;16.02;;
40827;SDS011;26549;50.918;5.338;2023-07-02T05:09:41;30.30;;;17.15;;
40827;SDS011;26549;50.918;5.338;2023-07-02T05:12:06;32.75;;;14.45;;
40827;SDS011;26549;50.918;5.338;2023-07-02T05:14:32;34.53;;;17.08;;
40827;SDS011;26549;50.918;5.338;2023-07-02T05:16:58;31.38;;;14.45;;
40827;SDS011;26549;50.918;5.338;2023-07-02T05:19:24;39.92;;;16.65;;
40827;SDS011;26549;50.918;5.338;2023-07-02T05:21:50;38.75;;;18.08;;
40827;SDS011;26549;50.918;5.338;2023-07-02T05:24:15;40.63;;;17.92;;
40827;SDS011;26549;50.918;5.338;2023-07-02T05:26:41;35.90;;;15.95;;
40827;SDS011;26549;50.918;5.338;2023-07-02T05:29:07;38.45;;;17.23;;
40827;SDS011;26549;50.918;5.338;2023-07-02T05:31:33;35.22;;;17.45;;
40827;SDS011;26549;50.918;5.338;2023-07-02T05:33:59;29.20;;;15.98;;
40827;SDS011;26549;50.918;5.338;2023-07-02T05:36:25;37.00;;;16.58;;
40827;SDS011;26549;50.918;5.338;2023-07-02T05:38:51;37.58;;;15.50;;
40827;SDS011;26549;50.918;5.338;2023-07-02T05:41:22;36.72;;;17.63;;
40827;SDS011;26549;50.918;5.338;2023-07-02T05:43:48;35.38;;;16.02;;
40827;SDS011;26549;50.918;5.338;2023-07-02T05:46:14;35.75;;;17.60;;
40827;SDS011;26549;50.918;5.338;2023-07-02T05:48:40;33.85;;;16.60;;
40827;SDS011;26549;50.918;5.338;2023-07-02T05:51:07;34.10;;;16.20;;
40827;SDS011;26549;50.918;5.338;2023-07-02T05:53:34;36.30;;;15.35;;
40827;SDS011;26549;50.918;5.338;2023-07-02T05:56:02;35.47;;;17.23;;
40827;SDS011;26549;50.918;5.338;2023-07-02T05:58:27;36.30;;;17.92;;
40827;SDS011;26549;50.918;5.338;2023-07-02T06:00:55;38.65;;;17.23;;
40827;SDS011;26549;50.918;5.338;2023-07-02T06:03:20;34.47;;;16.33;;
40827;SDS011;26549;50.918;5.338;2023-07-02T06:05:47;42.65;;;17.20;;
40827;SDS011;26549;50.918;5.338;2023-07-02T06:08:14;34.30;;;17.40;;
40827;SDS011;26549;50.918;5.338;2023-07-02T06:10:40;38.97;;;18.77;;
40827;SDS011;26549;50.918;5.338;2023-07-02T06:13:06;44.25;;;18.95;;
40827;SDS011;26549;50.918;5.338;2023-07-02T06:15:32;32.95;;;16.60;;
40827;SDS011;26549;50.918;5.338;2023-07-02T06:17:58;41.25;;;17.70;;
40827;SDS011;26549;50.918;5.338;2023-07-02T06:20:24;43.22;;;17.75;;
40827;SDS011;26549;50.918;5.338;2023-07-02T06:22:49;36.60;;;17.08;;
40827;SDS011;26549;50.918;5.338;2023-07-02T06:25:15;34.00;;;16.42;;
40827;SDS011;26549;50.918;5.338;2023-07-02T06:27:41;36.90;;;17.08;;
40827;SDS011;26549;50.918;5.338;2023-07-02T06:30:06;38.20;;;17.40;;
40827;SDS011;26549;50.918;5.338;2023-07-02T06:32:32;33.80;;;17.40;;
40827;SDS011;26549;50.918;5.338;2023-07-02T06:34:58;37.38;;;16.40;;
40827;SDS011;26549;50.918;5.338;2023-07-02T06:37:24;39.75;;;17.63;;
40827;SDS011;26549;50.918;5.338;2023-07-02T06:39:51;37.47;;;18.77;;
40827;SDS011;26549;50.918;5.338;2023-07-02T06:42:16;36.50;;;16.67;;
40827;SDS011;26549;50.918;5.338;2023-07-02T06:44:42;35.83;;;17.67;;
40827;SDS011;26549;50.918;5.338;2023-07-02T06:47:08;38.70;;;17.77;;
40827;SDS011;26549;50.918;5.338;2023-07-02T06:49:34;42.75;;;17.77;;
40827;SDS011;26549;50.918;5.338;2023-07-02T06:52:01;38.65;;;19.67;;
40827;SDS011;26549;50.918;5.338;2023-07-02T06:54:26;37.97;;;17.38;;
40827;SDS011;26549;50.918;5.338;2023-07-02T06:56:52;43.08;;;18.58;;
40827;SDS011;26549;50.918;5.338;2023-07-02T06:59:21;37.67;;;19.30;;
40827;SDS011;26549;50.918;5.338;2023-07-02T07:01:49;36.38;;;17.42;;
40827;SDS011;26549;50.918;5.338;2023-07-02T07:04:15;38.58;;;16.70;;
40827;SDS011;26549;50.918;5.338;2023-07-02T07:06:41;37.90;;;17.10;;
40827;SDS011;26549;50.918;5.338;2023-07-02T07:09:07;37.70;;;16.70;;
40827;SDS011;26549;50.918;5.338;2023-07-02T07:11:33;41.22;;;16.88;;
40827;SDS011;26549;50.918;5.338;2023-07-02T07:13:59;42.72;;;18.38;;
40827;SDS011;26549;50.918;5.338;2023-07-02T07:16:25;40.88;;;18.95;;
40827;SDS011;26549;50.918;5.338;2023-07-02T07:18:51;37.00;;;16.27;;
40827;SDS011;26549;50.918;5.338;2023-07-02T07:21:17;34.95;;;15.80;;
40827;SDS011;26549;50.918;5.338;2023-07-02T07:23:43;29.00;;;15.70;;
40827;SDS011;26549;50.918;5.338;2023-07-02T07:26:09;30.80;;;16.45;;
40827;SDS011;26549;50.918;5.338;2023-07-02T07:28:34;30.67;;;15.00;;
40827;SDS011;26549;50.918;5.338;2023-07-02T07:31:00;33.60;;;16.27;;
40827;SDS011;26549;50.918;5.338;2023-07-02T07:33:26;33.47;;;16.08;;
40827;SDS011;26549;50.918;5.338;2023-07-02T07:35:52;34.63;;;16.98;;
40827;SDS011;26549;50.918;5.338;2023-07-02T07:38:18;33.78;;;16.83;;
40827;SDS011;26549;50.918;5.338;2023-07-02T07:40:44;28.13;;;15.35;;
40827;SDS011;26549;50.918;5.338;2023-07-02T07:43:10;40.42;;;15.98;;
40827;SDS011;26549;50.918;5.338;2023-07-02T07:45:36;31.38;;;16.40;;
40827;SDS011;26549;50.918;5.338;2023-07-02T07:48:02;34.25;;;16.48;;
40827;SDS011;26549;50.918;5.338;2023-07-02T07:50:29;31.33;;;17.95;;
40827;SDS011;26549;50.918;5.338;2023-07-02T07:52:55;30.98;;;15.00;;
40827;SDS011;26549;50.918;5.338;2023-07-02T07:55:21;34.78;;;15.80;;
40827;SDS011;26549;50.918;5.338;2023-07-02T07:57:46;26.80;;;15.80;;
40827;SDS011;26549;50.918;5.338;2023-07-02T08:00:12;33.15;;;16.92;;
40827;SDS011;26549;50.918;5.338;2023-07-02T08:02:38;35.35;;;16.25;;
40827;SDS011;26549;50.918;5.338;2023-07-02T08:05:04;33.33;;;16.25;;
40827;SDS011;26549;50.918;5.338;2023-07-02T08:07:31;27.48;;;14.18;;
40827;SDS011;26549;50.918;5.338;2023-07-02T08:09:57;34.78;;;16.52;;
40827;SDS011;26549;50.918;5.338;2023-07-02T08:12:23;30.92;;;14.18;;
40827;SDS011;26549;50.918;5.338;2023-07-02T08:14:49;31.90;;;14.80;;
40827;SDS011;26549;50.918;5.338;2023-07-02T08:17:15;32.05;;;14.32;;
40827;SDS011;26549;50.918;5.338;2023-07-02T08:19:41;27.50;;;14.27;;
40827;SDS011;26549;50.918;5.338;2023-07-02T08:22:08;34.42;;;15.35;;
40827;SDS011;26549;50.918;5.338;2023-07-02T08:24:33;22.80;;;13.20;;
40827;SDS011;26549;50.918;5.338;2023-07-02T08:26:59;29.88;;;14.30;;
40827;SDS011;26549;50.918;5.338;2023-07-02T08:29:27;24.30;;;13.48;;
40827;SDS011;26549;50.918;5.338;2023-07-02T08:31:55;24.13;;;12.70;;
40827;SDS011;26549;50.918;5.338;2023-07-02T08:34:21;27.92;;;12.77;;
40827;SDS011;26549;50.918;5.338;2023-07-02T08:36:47;29.70;;;12.00;;
40827;SDS011;26549;50.918;5.338;2023-07-02T08:39:13;22.85;;;10.88;;
40827;SDS011;26549;50.918;5.338;2023-07-02T08:41:42;30.40;;;11.20;;
40827;SDS011;26549;50.918;5.338;2023-07-02T08:44:12;27.10;;;12.85;;
40827;SDS011;26549;50.918;5.338;2023-07-02T08:46:39;28.30;;;11.00;;
40827;SDS011;26549;50.918;5.338;2023-07-02T08:49:06;23.88;;;11.70;;
40827;SDS011;26549;50.918;5.338;2023-07-02T08:51:34;24.17;;;12.27;;
40827;SDS011;26549;50.918;5.338;2023-07-02T08:54:01;28.30;;;12.57;;
40827;SDS011;26549;50.918;5.338;2023-07-02T08:56:27;18.25;;;9.82;;
40827;SDS011;26549;50.918;5.338;2023-07-02T08:58:53;24.30;;;9.95;;
40827;SDS011;26549;50.918;5.338;2023-07-02T09:01:19;21.98;;;9.25;;
40827;SDS011;26549;50.918;5.338;2023-07-02T09:03:45;20.35;;;9.73;;
40827;SDS011;26549;50.918;5.338;2023-07-02T09:06:11;16.63;;;7.93;;
40827;SDS011;26549;50.918;5.338;2023-07-02T09:08:37;22.73;;;8.15;;
40827;SDS011;26549;50.918;5.338;2023-07-02T09:13:50;19.77;;;9.55;;
40827;SDS011;26549;50.918;5.338;2023-07-02T09:16:28;21.65;;;8.20;;
40827;SDS011;26549;50.918;5.338;2023-07-02T09:21:41;19.90;;;8.63;;
40827;SDS011;26549;50.918;5.338;2023-07-02T09:24:30;18.23;;;8.52;;
40827;SDS011;26549;50.918;5.338;2023-07-02T09:26:57;15.48;;;7.35;;
40827;SDS011;26549;50.918;5.338;2023-07-02T09:29:29;14.05;;;7.10;;
40827;SDS011;26549;50.918;5.338;2023-07-02T09:32:00;14.65;;;5.85;;
40827;SDS011;26549;50.918;5.338;2023-07-02T09:34:36;15.65;;;6.18;;
40827;SDS011;26549;50.918;5.338;2023-07-02T09:37:05;16.95;;;5.80;;
40827;SDS011;26549;50.918;5.338;2023-07-02T09:39:32;12.27;;;6.05;;
40827;SDS011;26549;50.918;5.338;2023-07-02T09:42:01;19.13;;;6.47;;
40827;SDS011;26549;50.918;5.338;2023-07-02T09:44:30;16.27;;;7.13;;
40827;SDS011;26549;50.918;5.338;2023-07-02T09:47:04;14.25;;;6.35;;
40827;SDS011;26549;50.918;5.338;2023-07-02T09:49:32;15.30;;;6.23;;
40827;SDS011;26549;50.918;5.338;2023-07-02T09:52:00;14.30;;;5.60;;
40827;SDS011;26549;50.918;5.338;2023-07-02T09:54:28;13.52;;;6.60;;
40827;SDS011;26549;50.918;5.338;2023-07-02T09:56:55;11.40;;;5.15;;
40827;SDS011;26549;50.918;5.338;2023-07-02T09:59:21;15.35;;;6.32;;
40827;SDS011;26549;50.918;5.338;2023-07-02T10:01:47;12.82;;;7.40;;
40827;SDS011;26549;50.918;5.338;2023-07-02T10:04:13;13.30;;;5.93;;
40827;SDS011;26549;50.918;5.338;2023-07-02T10:06:46;13.80;;;6.00;;
40827;SDS011;26549;50.918;5.338;2023-07-02T10:09:16;11.45;;;5.47;;
40827;SDS011;26549;50.918;5.338;2023-07-02T10:11:43;17.30;;;5.65;;
40827;SDS011;26549;50.918;5.338;2023-07-02T10:14:09;17.20;;;7.03;;
40827;SDS011;26549;50.918;5.338;2023-07-02T10:16:47;16.02;;;6.05;;
40827;SDS011;26549;50.918;5.338;2023-07-02T10:19:22;17.75;;;7.88;;
40827;SDS011;26549;50.918;5.338;2023-07-02T10:22:01;15.73;;;5.88;;
40827;SDS011;26549;50.918;5.338;2023-07-02T10:24:30;15.38;;;7.22;;
40827;SDS011;26549;50.918;5.338;2023-07-02T10:26:57;10.82;;;6.70;;
40827;SDS011;26549;50.918;5.338;2023-07-02T10:29:24;15.23;;;6.82;;
40827;SDS011;26549;50.918;5.338;2023-07-02T10:31:51;16.80;;;6.15;;
40827;SDS011;26549;50.918;5.338;2023-07-02T10:34:28;14.65;;;6.20;;
40827;SDS011;26549;50.918;5.338;2023-07-02T10:36:54;14.57;;;6.13;;
40827;SDS011;26549;50.918;5.338;2023-07-02T10:39:20;14.93;;;7.10;;
40827;SDS011;26549;50.918;5.338;2023-07-02T10:41:46;19.25;;;8.55;;
40827;SDS011;26549;50.918;5.338;2023-07-02T10:44:14;15.25;;;7.38;;
40827;SDS011;26549;50.918;5.338;2023-07-02T10:46:46;16.33;;;7.05;;
40827;SDS011;26549;50.918;5.338;2023-07-02T10:49:17;17.35;;;7.90;;
40827;SDS011;26549;50.918;5.338;2023-07-02T10:51:56;14.65;;;6.85;;
40827;SDS011;26549;50.918;5.338;2023-07-02T10:54:41;20.38;;;9.20;;
40827;SDS011;26549;50.918;5.338;2023-07-02T10:59:35;20.27;;;7.65;;
40827;SDS011;26549;50.918;5.338;2023-07-02T11:02:01;16.50;;;6.97;;
40827;SDS011;26549;50.918;5.338;2023-07-02T11:04:28;16.65;;;8.20;;
40827;SDS011;26549;50.918;5.338;2023-07-02T11:09:27;17.05;;;7.60;;
40827;SDS011;26549;50.918;5.338;2023-07-02T11:11:57;21.42;;;8.85;;
40827;SDS011;26549;50.918;5.338;2023-07-02T11:14:27;15.40;;;8.27;;
40827;SDS011;26549;50.918;5.338;2023-07-02T11:16:54;21.80;;;7.43;;
40827;SDS011;26549;50.918;5.338;2023-07-02T11:19:21;16.23;;;10.15;;
40827;SDS011;26549;50.918;5.338;2023-07-02T11:21:52;15.65;;;7.95;;
40827;SDS011;26549;50.918;5.338;2023-07-02T11:24:31;19.63;;;8.20;;
40827;SDS011;26549;50.918;5.338;2023-07-02T11:26:58;17.50;;;7.30;;
40827;SDS011;26549;50.918;5.338;2023-07-02T11:29:25;16.48;;;7.95;;
40827;SDS011;26549;50.918;5.338;2023-07-02T11:31:53;22.95;;;8.00;;
40827;SDS011;26549;50.918;5.338;2023-07-02T11:34:20;16.30;;;8.50;;
40827;SDS011;26549;50.918;5.338;2023-07-02T11:36:48;20.35;;;8.85;;
40827;SDS011;26549;50.918;5.338;2023-07-02T11:39:15;17.67;;;7.22;;
40827;SDS011;26549;50.918;5.338;2023-07-02T11:41:43;18.38;;;7.70;;
40827;SDS011;26549;50.918;5.338;2023-07-02T11:44:09;19.48;;;7.45;;
40827;SDS011;26549;50.918;5.338;2023-07-02T11:49:04;17.45;;;7.82;;
40827;SDS011;26549;50.918;5.338;2023-07-02T11:51:30;18.35;;;8.82;;
40827;SDS011;26549;50.918;5.338;2023-07-02T11:53:56;15.30;;;7.28;;
40827;SDS011;26549;50.918;5.338;2023-07-02T11:56:23;17.50;;;7.85;;
40827;SDS011;26549;50.918;5.338;2023-07-02T11:58:49;16.77;;;7.60;;
40827;SDS011;26549;50.918;5.338;2023-07-02T12:01:15;17.83;;;7.30;;
40827;SDS011;26549;50.918;5.338;2023-07-02T12:03:40;16.58;;;7.70;;
40827;SDS011;26549;50.918;5.338;2023-07-02T12:06:06;17.80;;;6.88;;
40827;SDS011;26549;50.918;5.338;2023-07-02T12:08:32;17.98;;;7.80;;
40827;SDS011;26549;50.918;5.338;2023-07-02T12:10:58;17.67;;;7.32;;
40827;SDS011;26549;50.918;5.338;2023-07-02T12:13:23;21.23;;;8.35;;
40827;SDS011;26549;50.918;5.338;2023-07-02T12:15:49;17.00;;;6.85;;
40827;SDS011;26549;50.918;5.338;2023-07-02T12:18:16;17.92;;;8.10;;
40827;SDS011;26549;50.918;5.338;2023-07-02T12:20:42;17.70;;;7.55;;
40827;SDS011;26549;50.918;5.338;2023-07-02T12:23:07;14.80;;;7.10;;
40827;SDS011;26549;50.918;5.338;2023-07-02T12:25:34;24.45;;;8.85;;
40827;SDS011;26549;50.918;5.338;2023-07-02T12:28:01;19.05;;;7.68;;
40827;SDS011;26549;50.918;5.338;2023-07-02T12:30:28;21.45;;;8.55;;
40827;SDS011;26549;50.918;5.338;2023-07-02T12:32:54;17.10;;;7.13;;
40827;SDS011;26549;50.918;5.338;2023-07-02T12:35:20;17.58;;;7.38;;
40827;SDS011;26549;50.918;5.338;2023-07-02T12:37:46;18.02;;;7.78;;
40827;SDS011;26549;50.918;5.338;2023-07-02T12:40:14;20.90;;;8.32;;
40827;SDS011;26549;50.918;5.338;2023-07-02T12:42:43;14.85;;;7.13;;
40827;SDS011;26549;50.918;5.338;2023-07-02T12:45:10;14.60;;;5.82;;
40827;SDS011;26549;50.918;5.338;2023-07-02T12:47:37;24.00;;;8.68;;
40827;SDS011;26549;50.918;5.338;2023-07-02T12:50:04;14.35;;;7.60;;
40827;SDS011;26549;50.918;5.338;2023-07-02T12:52:30;13.23;;;6.18;;
40827;SDS011;26549;50.918;5.338;2023-07-02T12:54:56;16.65;;;6.43;;
40827;SDS011;26549;50.918;5.338;2023-07-02T12:57:22;18.77;;;7.10;;
40827;SDS011;26549;50.918;5.338;2023-07-02T12:59:48;11.40;;;6.32;;
40827;SDS011;26549;50.918;5.338;2023-07-02T13:02:14;13.27;;;6.97;;
40827;SDS011;26549;50.918;5.338;2023-07-02T13:04:39;15.43;;;6.93;;
40827;SDS011;26549;50.918;5.338;2023-07-02T13:07:05;12.98;;;6.78;;
40827;SDS011;26549;50.918;5.338;2023-07-02T13:09:31;20.25;;;6.70;;
40827;SDS011;26549;50.918;5.338;2023-07-02T13:11:57;16.13;;;7.28;;
40827;SDS011;26549;50.918;5.338;2023-07-02T13:14:23;17.88;;;7.45;;
40827;SDS011;26549;50.918;5.338;2023-07-02T13:16:49;16.48;;;7.03;;
40827;SDS011;26549;50.918;5.338;2023-07-02T13:19:15;19.42;;;7.90;;
40827;SDS011;26549;50.918;5.338;2023-07-02T13:21:40;13.27;;;7.57;;
40827;SDS011;26549;50.918;5.338;2023-07-02T13:24:07;16.20;;;7.38;;
40827;SDS011;26549;50.918;5.338;2023-07-02T13:26:33;13.98;;;6.20;;
40827;SDS011;26549;50.918;5.338;2023-07-02T13:28:59;17.00;;;7.70;;
40827;SDS011;26549;50.918;5.338;2023-07-02T13:31:24;15.07;;;6.97;;
40827;SDS011;26549;50.918;5.338;2023-07-02T13:33:50;15.63;;;6.78;;
40827;SDS011;26549;50.918;5.338;2023-07-02T13:36:16;14.95;;;6.35;;
40827;SDS011;26549;50.918;5.338;2023-07-02T13:38:42;17.90;;;7.00;;
40827;SDS011;26549;50.918;5.338;2023-07-02T13:41:09;13.07;;;6.97;;
40827;SDS011;26549;50.918;5.338;2023-07-02T13:43:35;16.85;;;7.05;;
40827;SDS011;26549;50.918;5.338;2023-07-02T13:46:00;13.45;;;6.53;;
40827;SDS011;26549;50.918;5.338;2023-07-02T13:48:27;14.98;;;6.40;;
40827;SDS011;26549;50.918;5.338;2023-07-02T13:50:53;16.02;;;6.15;;
40827;SDS011;26549;50.918;5.338;2023-07-02T13:53:19;14.45;;;6.82;;
40827;SDS011;26549;50.918;5.338;2023-07-02T13:55:45;13.45;;;6.50;;
40827;SDS011;26549;50.918;5.338;2023-07-02T13:58:10;15.93;;;7.15;;
40827;SDS011;26549;50.918;5.338;2023-07-02T14:00:36;12.25;;;6.78;;
40827;SDS011;26549;50.918;5.338;2023-07-02T14:03:02;13.32;;;7.03;;
40827;SDS011;26549;50.918;5.338;2023-07-02T14:05:29;14.93;;;6.70;;
40827;SDS011;26549;50.918;5.338;2023-07-02T14:07:54;21.42;;;8.52;;
40827;SDS011;26549;50.918;5.338;2023-07-02T14:10:20;12.27;;;6.38;;
40827;SDS011;26549;50.918;5.338;2023-07-02T14:12:46;19.20;;;6.60;;
40827;SDS011;26549;50.918;5.338;2023-07-02T14:15:12;21.15;;;8.60;;
40827;SDS011;26549;50.918;5.338;2023-07-02T14:17:38;16.67;;;5.93;;
40827;SDS011;26549;50.918;5.338;2023-07-02T14:20:04;14.63;;;6.50;;
40827;SDS011;26549;50.918;5.338;2023-07-02T14:22:31;19.60;;;6.75;;
40827;SDS011;26549;50.918;5.338;2023-07-02T14:24:56;15.90;;;6.68;;
40827;SDS011;26549;50.918;5.338;2023-07-02T14:27:22;12.10;;;6.78;;
40827;SDS011;26549;50.918;5.338;2023-07-02T14:29:48;16.33;;;6.80;;
40827;SDS011;26549;50.918;5.338;2023-07-02T14:32:14;16.38;;;6.43;;
40827;SDS011;26549;50.918;5.338;2023-07-02T14:34:40;14.52;;;8.18;;
40827;SDS011;26549;50.918;5.338;2023-07-02T14:37:06;16.48;;;6.15;;
40827;SDS011;26549;50.918;5.338;2023-07-02T14:39:32;16.25;;;7.13;;